CheckWX is a tool to help pilots better visualize weather data.  It is not intended as a substitute for an official pre-flight weather briefing.

01:06:56 UTC

ETSN METAR
Neuburg Airport
Germany
Current

47 mins ago

ETSN 230020Z 09007KT 6000 OVC004 04/03 Q1004 YLO
Observed
Nov-23 @ 00:20 UTC
Wind
  • 090° at 7 KTS
Visibility
6,000 meters
Flight Rules
LIFR
Cloud Levels
  • Overcast at 400' AGL
Temperature
C / 39°F
Dewpoint
C / 37°F
Humidity
93%
Altimeter
29.65" Hg
Pressure
1003.92 hPa
Previous

2 hours ago

ETSN 222320Z 08006KT 6000 OVC004 04/03 Q1005 YLO
Observed
Nov-22 @ 23:20 UTC
Wind
  • 080° at 6 KTS
Visibility
6,000 meters
Flight Rules
LIFR
Cloud Levels
  • Overcast at 400' AGL
Temperature
C / 39°F
Dewpoint
C / 37°F
Humidity
93%
Altimeter
29.68" Hg
Pressure
1004.92 hPa
Previous

3 hours ago

ETSN 222220Z 08007KT 9000 OVC004 04/03 Q1005 YLO
Observed
Nov-22 @ 22:20 UTC
Wind
  • 080° at 7 KTS
Visibility
9,000 meters
Flight Rules
LIFR
Cloud Levels
  • Overcast at 400' AGL
Temperature
C / 39°F
Dewpoint
C / 37°F
Humidity
93%
Altimeter
29.68" Hg
Pressure
1004.92 hPa